sensor_id;sensor_type;location;lat;lon;timestamp;pressure;altitude;pressure_sealevel;temperature;humidity
70589;BME280;58152;49.202;18.744;2022-09-14T00:00:50;96758.66;;;16.07;65.91
70589;BME280;58152;49.202;18.744;2022-09-14T00:03:16;96757.81;;;16.07;65.94
70589;BME280;58152;49.202;18.744;2022-09-14T00:05:42;96759.75;;;16.05;66.10
70589;BME280;58152;49.202;18.744;2022-09-14T00:08:08;96757.81;;;16.07;65.77
70589;BME280;58152;49.202;18.744;2022-09-14T00:10:38;96759.00;;;16.02;66.21
70589;BME280;58152;49.202;18.744;2022-09-14T00:13:04;96749.41;;;16.01;66.55
70589;BME280;58152;49.202;18.744;2022-09-14T00:15:29;96758.06;;;16.04;66.66
70589;BME280;58152;49.202;18.744;2022-09-14T00:17:55;96746.38;;;15.95;66.69
70589;BME280;58152;49.202;18.744;2022-09-14T00:20:20;96751.69;;;15.95;66.34
70589;BME280;58152;49.202;18.744;2022-09-14T00:22:46;96756.84;;;15.96;66.46
70589;BME280;58152;49.202;18.744;2022-09-14T00:25:12;96756.97;;;15.95;66.92
70589;BME280;58152;49.202;18.744;2022-09-14T00:27:38;96757.91;;;15.94;66.53
70589;BME280;58152;49.202;18.744;2022-09-14T00:30:03;96764.91;;;15.95;66.79
70589;BME280;58152;49.202;18.744;2022-09-14T00:32:30;96752.13;;;15.89;67.40
70589;BME280;58152;49.202;18.744;2022-09-14T00:34:55;96754.69;;;15.90;66.41
70589;BME280;58152;49.202;18.744;2022-09-14T00:37:21;96752.38;;;15.86;67.26
70589;BME280;58152;49.202;18.744;2022-09-14T00:39:46;96751.19;;;15.90;67.05
70589;BME280;58152;49.202;18.744;2022-09-14T00:42:15;96747.81;;;15.88;67.04
70589;BME280;58152;49.202;18.744;2022-09-14T00:47:06;96743.47;;;15.87;66.83
70589;BME280;58152;49.202;18.744;2022-09-14T00:49:35;96743.59;;;15.85;66.91
70589;BME280;58152;49.202;18.744;2022-09-14T00:54:37;96739.38;;;15.83;67.17
70589;BME280;58152;49.202;18.744;2022-09-14T00:57:03;96743.69;;;15.84;67.11
70589;BME280;58152;49.202;18.744;2022-09-14T00:59:33;96740.56;;;15.79;67.34
70589;BME280;58152;49.202;18.744;2022-09-14T01:02:01;96732.84;;;15.75;67.39
70589;BME280;58152;49.202;18.744;2022-09-14T01:04:27;96742.25;;;15.80;67.42
70589;BME280;58152;49.202;18.744;2022-09-14T01:07:04;96737.91;;;15.79;67.67
70589;BME280;58152;49.202;18.744;2022-09-14T01:12:36;96745.16;;;15.77;68.18
70589;BME280;58152;49.202;18.744;2022-09-14T01:15:10;96738.63;;;15.69;67.78
70589;BME280;58152;49.202;18.744;2022-09-14T01:18:06;96742.59;;;15.75;68.07
70589;BME280;58152;49.202;18.744;2022-09-14T01:20:37;96722.13;;;15.66;67.91
70589;BME280;58152;49.202;18.744;2022-09-14T01:23:27;96730.56;;;15.71;68.15
70589;BME280;58152;49.202;18.744;2022-09-14T01:32:02;96731.03;;;15.65;68.62
70589;BME280;58152;49.202;18.744;2022-09-14T01:34:35;96726.06;;;15.60;68.09
70589;BME280;58152;49.202;18.744;2022-09-14T01:37:10;96713.31;;;15.54;68.62
70589;BME280;58152;49.202;18.744;2022-09-14T01:39:41;96720.16;;;15.57;68.35
70589;BME280;58152;49.202;18.744;2022-09-14T01:42:10;96711.59;;;15.53;68.40
70589;BME280;58152;49.202;18.744;2022-09-14T01:44:38;96713.66;;;15.49;68.30
70589;BME280;58152;49.202;18.744;2022-09-14T01:47:16;96728.22;;;15.55;68.68
70589;BME280;58152;49.202;18.744;2022-09-14T01:50:10;96728.94;;;15.57;69.13
70589;BME280;58152;49.202;18.744;2022-09-14T01:52:46;96721.97;;;15.56;68.82
70589;BME280;58152;49.202;18.744;2022-09-14T01:55:19;96711.50;;;15.55;68.54
70589;BME280;58152;49.202;18.744;2022-09-14T01:58:00;96699.34;;;15.52;68.55
70589;BME280;58152;49.202;18.744;2022-09-14T02:00:29;96708.38;;;15.49;68.83
70589;BME280;58152;49.202;18.744;2022-09-14T02:03:00;96703.81;;;15.51;68.74
70589;BME280;58152;49.202;18.744;2022-09-14T02:05:53;96705.72;;;15.49;68.99
70589;BME280;58152;49.202;18.744;2022-09-14T02:08:22;96707.53;;;15.49;68.82
70589;BME280;58152;49.202;18.744;2022-09-14T02:10:49;96698.38;;;15.42;68.91
70589;BME280;58152;49.202;18.744;2022-09-14T02:13:14;96701.72;;;15.44;68.85
70589;BME280;58152;49.202;18.744;2022-09-14T02:15:41;96708.59;;;15.46;69.06
70589;BME280;58152;49.202;18.744;2022-09-14T02:18:06;96687.78;;;15.42;68.92
70589;BME280;58152;49.202;18.744;2022-09-14T02:20:38;96681.53;;;15.43;69.35
70589;BME280;58152;49.202;18.744;2022-09-14T02:23:06;96684.44;;;15.40;69.25
70589;BME280;58152;49.202;18.744;2022-09-14T02:25:33;96685.72;;;15.34;68.90
70589;BME280;58152;49.202;18.744;2022-09-14T02:28:01;96687.28;;;15.37;69.42
70589;BME280;58152;49.202;18.744;2022-09-14T02:30:27;96683.69;;;15.38;69.05
70589;BME280;58152;49.202;18.744;2022-09-14T02:33:27;96648.72;;;15.34;69.44
70589;BME280;58152;49.202;18.744;2022-09-14T02:36:01;96659.19;;;15.36;69.15
70589;BME280;58152;49.202;18.744;2022-09-14T02:38:53;96672.63;;;15.33;69.34
70589;BME280;58152;49.202;18.744;2022-09-14T02:44:03;96674.03;;;15.25;69.88
70589;BME280;58152;49.202;18.744;2022-09-14T02:49:33;96666.00;;;15.27;69.75
70589;BME280;58152;49.202;18.744;2022-09-14T02:52:09;96652.41;;;15.20;69.47
70589;BME280;58152;49.202;18.744;2022-09-14T02:54:49;96659.25;;;15.23;69.57
70589;BME280;58152;49.202;18.744;2022-09-14T02:57:18;96654.31;;;15.18;69.48
70589;BME280;58152;49.202;18.744;2022-09-14T02:59:43;96660.66;;;15.16;69.53
70589;BME280;58152;49.202;18.744;2022-09-14T03:02:09;96662.72;;;15.12;69.55
70589;BME280;58152;49.202;18.744;2022-09-14T03:04:34;96660.91;;;15.13;69.53
70589;BME280;58152;49.202;18.744;2022-09-14T03:07:00;96662.72;;;15.12;69.61
70589;BME280;58152;49.202;18.744;2022-09-14T03:09:25;96667.25;;;15.10;69.78
70589;BME280;58152;49.202;18.744;2022-09-14T03:11:51;96662.09;;;15.09;69.73
70589;BME280;58152;49.202;18.744;2022-09-14T03:14:16;96667.25;;;15.10;69.82
70589;BME280;58152;49.202;18.744;2022-09-14T03:16:42;96674.47;;;15.08;70.16
70589;BME280;58152;49.202;18.744;2022-09-14T03:19:07;96683.84;;;15.12;69.92
70589;BME280;58152;49.202;18.744;2022-09-14T03:21:37;96698.97;;;15.10;69.79
70589;BME280;58152;49.202;18.744;2022-09-14T03:24:02;96686.09;;;15.06;69.75
70589;BME280;58152;49.202;18.744;2022-09-14T03:26:28;96683.78;;;15.01;70.57
70589;BME280;58152;49.202;18.744;2022-09-14T03:28:56;96679.97;;;15.05;69.99
70589;BME280;58152;49.202;18.744;2022-09-14T03:31:22;96673.00;;;15.04;70.32
70589;BME280;58152;49.202;18.744;2022-09-14T03:33:58;96678.03;;;15.07;70.30
70589;BME280;58152;49.202;18.744;2022-09-14T03:36:25;96675.53;;;15.06;69.86
70589;BME280;58152;49.202;18.744;2022-09-14T03:38:55;96680.69;;;15.07;70.04
70589;BME280;58152;49.202;18.744;2022-09-14T03:41:22;96672.03;;;15.05;69.73
70589;BME280;58152;49.202;18.744;2022-09-14T03:43:48;96665.16;;;15.03;70.08
70589;BME280;58152;49.202;18.744;2022-09-14T03:46:16;96666.25;;;15.00;69.74
70589;BME280;58152;49.202;18.744;2022-09-14T03:48:42;96681.13;;;15.01;69.73
70589;BME280;58152;49.202;18.744;2022-09-14T03:51:10;96673.22;;;15.01;70.00
70589;BME280;58152;49.202;18.744;2022-09-14T03:53:36;96661.31;;;14.95;69.94
70589;BME280;58152;49.202;18.744;2022-09-14T03:56:10;96671.75;;;14.97;69.71
70589;BME280;58152;49.202;18.744;2022-09-14T03:58:36;96664.78;;;14.96;69.69
70589;BME280;58152;49.202;18.744;2022-09-14T04:01:03;96656.88;;;14.96;69.66
70589;BME280;58152;49.202;18.744;2022-09-14T04:03:30;96649.06;;;14.94;70.15
70589;BME280;58152;49.202;18.744;2022-09-14T04:05:56;96657.94;;;14.93;69.83
70589;BME280;58152;49.202;18.744;2022-09-14T04:08:22;96656.38;;;14.91;69.88
70589;BME280;58152;49.202;18.744;2022-09-14T04:10:47;96652.06;;;14.90;70.02
70589;BME280;58152;49.202;18.744;2022-09-14T04:13:13;96655.53;;;14.90;70.13
70589;BME280;58152;49.202;18.744;2022-09-14T04:15:38;96643.50;;;14.86;70.13
70589;BME280;58152;49.202;18.744;2022-09-14T04:18:04;96640.88;;;14.86;70.45
70589;BME280;58152;49.202;18.744;2022-09-14T04:20:29;96652.13;;;14.88;70.35
70589;BME280;58152;49.202;18.744;2022-09-14T04:22:55;96643.63;;;14.85;70.18
70589;BME280;58152;49.202;18.744;2022-09-14T04:25:20;96635.72;;;14.85;70.11
70589;BME280;58152;49.202;18.744;2022-09-14T04:27:47;96629.69;;;14.83;70.76
70589;BME280;58152;49.202;18.744;2022-09-14T04:30:14;96620.78;;;14.84;70.52
70589;BME280;58152;49.202;18.744;2022-09-14T04:32:39;96620.78;;;14.84;70.73
70589;BME280;58152;49.202;18.744;2022-09-14T04:35:05;96634.00;;;14.84;70.45
70589;BME280;58152;49.202;18.744;2022-09-14T04:37:31;96622.72;;;14.82;70.51
70589;BME280;58152;49.202;18.744;2022-09-14T04:39:57;96623.44;;;14.84;70.61
70589;BME280;58152;49.202;18.744;2022-09-14T04:42:22;96620.78;;;14.84;70.52
70589;BME280;58152;49.202;18.744;2022-09-14T04:44:48;96617.56;;;14.80;70.70
70589;BME280;58152;49.202;18.744;2022-09-14T04:47:13;96607.09;;;14.79;71.03
70589;BME280;58152;49.202;18.744;2022-09-14T04:49:39;96607.72;;;14.82;70.80
70589;BME280;58152;49.202;18.744;2022-09-14T04:52:04;96618.78;;;14.87;71.05
70589;BME280;58152;49.202;18.744;2022-09-14T04:54:30;96624.91;;;14.88;70.92
70589;BME280;58152;49.202;18.744;2022-09-14T04:56:55;96615.41;;;14.85;70.52
70589;BME280;58152;49.202;18.744;2022-09-14T04:59:20;96624.06;;;14.87;71.04
70589;BME280;58152;49.202;18.744;2022-09-14T05:01:46;96633.31;;;14.93;70.98
70589;BME280;58152;49.202;18.744;2022-09-14T05:04:12;96614.59;;;14.85;71.14
70589;BME280;58152;49.202;18.744;2022-09-14T05:06:39;96613.63;;;14.86;71.09
70589;BME280;58152;49.202;18.744;2022-09-14T05:09:09;96626.34;;;14.92;71.16
70589;BME280;58152;49.202;18.744;2022-09-14T05:11:37;96617.72;;;14.90;70.72
70589;BME280;58152;49.202;18.744;2022-09-14T05:14:03;96618.66;;;14.89;70.67
70589;BME280;58152;49.202;18.744;2022-09-14T05:16:31;96614.34;;;14.88;71.09
70589;BME280;58152;49.202;18.744;2022-09-14T05:18:59;96629.00;;;14.92;70.74
70589;BME280;58152;49.202;18.744;2022-09-14T05:21:27;96625.50;;;14.91;71.06
70589;BME280;58152;49.202;18.744;2022-09-14T05:24:01;96623.94;;;14.89;71.00
70589;BME280;58152;49.202;18.744;2022-09-14T05:26:28;96634.63;;;14.87;70.71
70589;BME280;58152;49.202;18.744;2022-09-14T05:28:56;96641.69;;;14.87;70.63
70589;BME280;58152;49.202;18.744;2022-09-14T05:31:23;96641.69;;;14.87;70.84
70589;BME280;58152;49.202;18.744;2022-09-14T05:33:49;96643.28;;;14.89;70.99
70589;BME280;58152;49.202;18.744;2022-09-14T05:36:15;96638.00;;;14.89;70.80
70589;BME280;58152;49.202;18.744;2022-09-14T05:38:41;96644.72;;;14.93;70.41
70589;BME280;58152;49.202;18.744;2022-09-14T05:41:10;96638.59;;;14.93;70.48
70589;BME280;58152;49.202;18.744;2022-09-14T05:43:36;96625.41;;;14.93;70.69
70589;BME280;58152;49.202;18.744;2022-09-14T05:46:10;96632.03;;;14.98;70.64
70589;BME280;58152;49.202;18.744;2022-09-14T05:48:37;96634.69;;;14.98;70.46
70589;BME280;58152;49.202;18.744;2022-09-14T05:51:12;96637.91;;;15.02;70.75
70589;BME280;58152;49.202;18.744;2022-09-14T05:53:42;96630.25;;;14.99;70.82
70589;BME280;58152;49.202;18.744;2022-09-14T05:56:09;96627.34;;;15.02;70.99
70589;BME280;58152;49.202;18.744;2022-09-14T05:58:39;96625.47;;;15.04;71.06
70589;BME280;58152;49.202;18.744;2022-09-14T06:01:14;96625.34;;;15.06;71.10
70589;BME280;58152;49.202;18.744;2022-09-14T06:03:41;96621.97;;;15.04;71.21
70589;BME280;58152;49.202;18.744;2022-09-14T06:06:08;96621.00;;;15.05;71.19
70589;BME280;58152;49.202;18.744;2022-09-14T06:08:34;96615.94;;;15.02;71.01
70589;BME280;58152;49.202;18.744;2022-09-14T06:11:15;96622.56;;;15.07;70.85
70589;BME280;58152;49.202;18.744;2022-09-14T06:13:44;96621.84;;;15.05;71.45
70589;BME280;58152;49.202;18.744;2022-09-14T06:16:14;96629.66;;;15.07;70.74
70589;BME280;58152;49.202;18.744;2022-09-14T06:18:41;96604.66;;;14.99;71.35
70589;BME280;58152;49.202;18.744;2022-09-14T06:21:09;96620.78;;;15.08;71.25
70589;BME280;58152;49.202;18.744;2022-09-14T06:23:45;96614.63;;;15.07;71.19
70589;BME280;58152;49.202;18.744;2022-09-14T06:26:14;96619.56;;;15.12;71.40
70589;BME280;58152;49.202;18.744;2022-09-14T06:28:47;96624.75;;;15.13;71.10
70589;BME280;58152;49.202;18.744;2022-09-14T06:31:27;96615.50;;;15.08;71.15
70589;BME280;58152;49.202;18.744;2022-09-14T06:34:00;96626.66;;;15.11;70.84
70589;BME280;58152;49.202;18.744;2022-09-14T06:36:27;96617.06;;;15.10;71.07
70589;BME280;58152;49.202;18.744;2022-09-14T06:38:53;96614.41;;;15.10;71.45
70589;BME280;58152;49.202;18.744;2022-09-14T06:41:23;96631.38;;;15.19;71.30
70589;BME280;58152;49.202;18.744;2022-09-14T06:43:51;96633.19;;;15.18;71.21
70589;BME280;58152;49.202;18.744;2022-09-14T06:46:22;96632.34;;;15.18;71.06
70589;BME280;58152;49.202;18.744;2022-09-14T06:48:58;96618.38;;;15.16;71.32
70589;BME280;58152;49.202;18.744;2022-09-14T06:51:25;96624.06;;;15.22;72.28
70589;BME280;58152;49.202;18.744;2022-09-14T06:53:51;96624.28;;;15.19;71.74
70589;BME280;58152;49.202;18.744;2022-09-14T06:56:18;96638.97;;;15.23;71.63
70589;BME280;58152;49.202;18.744;2022-09-14T06:58:44;96637.03;;;15.25;71.74
70589;BME280;58152;49.202;18.744;2022-09-14T07:01:15;96635.25;;;15.26;71.60
70589;BME280;58152;49.202;18.744;2022-09-14T07:03:41;96631.53;;;15.29;71.82
70589;BME280;58152;49.202;18.744;2022-09-14T07:06:13;96632.16;;;15.32;72.06
70589;BME280;58152;49.202;18.744;2022-09-14T07:08:40;96638.41;;;15.31;71.89
70589;BME280;58152;49.202;18.744;2022-09-14T07:11:07;96632.75;;;15.36;71.67
70589;BME280;58152;49.202;18.744;2022-09-14T07:13:34;96630.69;;;15.39;71.73
70589;BME280;58152;49.202;18.744;2022-09-14T07:15:59;96636.38;;;15.46;72.28
70589;BME280;58152;49.202;18.744;2022-09-14T07:18:26;96631.72;;;15.49;72.09
70589;BME280;58152;49.202;18.744;2022-09-14T07:21:13;96633.25;;;15.52;72.30
70589;BME280;58152;49.202;18.744;2022-09-14T07:23:41;96638.81;;;15.60;72.23
70589;BME280;58152;49.202;18.744;2022-09-14T07:26:13;96637.00;;;15.61;72.25
70589;BME280;58152;49.202;18.744;2022-09-14T07:28:40;96636.69;;;15.65;72.02
70589;BME280;58152;49.202;18.744;2022-09-14T07:31:21;96636.69;;;15.65;72.11
70589;BME280;58152;49.202;18.744;2022-09-14T07:33:50;96647.25;;;15.65;72.41
70589;BME280;58152;49.202;18.744;2022-09-14T07:36:16;96641.22;;;15.63;72.27
70589;BME280;58152;49.202;18.744;2022-09-14T07:38:41;96650.66;;;15.67;72.42
70589;BME280;58152;49.202;18.744;2022-09-14T07:41:08;96663.75;;;15.69;72.44
70589;BME280;58152;49.202;18.744;2022-09-14T07:43:36;96655.31;;;15.64;72.84
70589;BME280;58152;49.202;18.744;2022-09-14T07:46:05;96658.44;;;15.69;72.42
70589;BME280;58152;49.202;18.744;2022-09-14T07:48:33;96652.44;;;15.67;72.46
70589;BME280;58152;49.202;18.744;2022-09-14T07:51:06;96656.16;;;15.64;72.33
70589;BME280;58152;49.202;18.744;2022-09-14T07:53:42;96657.00;;;15.65;72.73
70589;BME280;58152;49.202;18.744;2022-09-14T07:56:26;96657.00;;;15.65;72.58
70589;BME280;58152;49.202;18.744;2022-09-14T07:58:53;96648.31;;;15.63;72.50
70589;BME280;58152;49.202;18.744;2022-09-14T08:01:23;96654.00;;;15.69;72.79
70589;BME280;58152;49.202;18.744;2022-09-14T08:03:52;96653.78;;;15.72;72.57
70589;BME280;58152;49.202;18.744;2022-09-14T08:06:24;96651.97;;;15.73;72.60
70589;BME280;58152;49.202;18.744;2022-09-14T08:09:17;96652.59;;;15.77;72.82
70589;BME280;58152;49.202;18.744;2022-09-14T08:11:43;96653.28;;;15.79;72.79
70589;BME280;58152;49.202;18.744;2022-09-14T08:14:10;96641.41;;;15.73;73.11
70589;BME280;58152;49.202;18.744;2022-09-14T08:16:38;96653.28;;;15.79;73.03
70589;BME280;58152;49.202;18.744;2022-09-14T08:19:10;96661.00;;;15.82;72.81
70589;BME280;58152;49.202;18.744;2022-09-14T08:21:37;96650.50;;;15.80;73.09
70589;BME280;58152;49.202;18.744;2022-09-14T08:24:16;96654.97;;;15.80;73.16
70589;BME280;58152;49.202;18.744;2022-09-14T08:26:48;96657.50;;;15.81;73.17
70589;BME280;58152;49.202;18.744;2022-09-14T08:29:42;96653.91;;;15.82;73.57
70589;BME280;58152;49.202;18.744;2022-09-14T08:32:10;96643.91;;;15.74;72.93
70589;BME280;58152;49.202;18.744;2022-09-14T08:34:36;96649.94;;;15.77;73.34
70589;BME280;58152;49.202;18.744;2022-09-14T08:37:01;96662.19;;;15.78;73.34
70589;BME280;58152;49.202;18.744;2022-09-14T08:39:27;96665.44;;;15.81;73.43
70589;BME280;58152;49.202;18.744;2022-09-14T08:41:56;96667.25;;;15.81;73.42
70589;BME280;58152;49.202;18.744;2022-09-14T08:44:29;96656.06;;;15.77;73.73
70589;BME280;58152;49.202;18.744;2022-09-14T08:47:30;96671.44;;;15.83;73.97
70589;BME280;58152;49.202;18.744;2022-09-14T08:50:36;96680.34;;;15.82;73.66
70589;BME280;58152;49.202;18.744;2022-09-14T08:53:17;96682.16;;;15.82;73.41
70589;BME280;58152;49.202;18.744;2022-09-14T08:55:48;96694.28;;;15.84;72.97
70589;BME280;58152;49.202;18.744;2022-09-14T08:58:39;96692.47;;;15.85;73.28
70589;BME280;58152;49.202;18.744;2022-09-14T09:09:48;96698.88;;;15.82;73.26
70589;BME280;58152;49.202;18.744;2022-09-14T09:12:23;96691.28;;;15.78;73.25
70589;BME280;58152;49.202;18.744;2022-09-14T09:18:12;96696.22;;;15.82;73.89
70589;BME280;58152;49.202;18.744;2022-09-14T09:20:50;96699.84;;;15.81;73.66
70589;BME280;58152;49.202;18.744;2022-09-14T09:23:17;96698.75;;;15.84;73.94
70589;BME280;58152;49.202;18.744;2022-09-14T09:28:27;96700.53;;;15.83;73.91
70589;BME280;58152;49.202;18.744;2022-09-14T09:30:56;96684.91;;;15.80;73.90
70589;BME280;58152;49.202;18.744;2022-09-14T09:33:25;96690.56;;;15.87;74.09
70589;BME280;58152;49.202;18.744;2022-09-14T09:35:52;96696.56;;;15.89;73.96
70589;BME280;58152;49.202;18.744;2022-09-14T09:38:23;96693.00;;;15.90;74.46
70589;BME280;58152;49.202;18.744;2022-09-14T09:41:04;96677.22;;;15.88;74.67
70589;BME280;58152;49.202;18.744;2022-09-14T09:43:58;96672.91;;;15.87;75.05
70589;BME280;58152;49.202;18.744;2022-09-14T09:46:30;96677.72;;;15.93;75.14
70589;BME280;58152;49.202;18.744;2022-09-14T09:48:58;96666.53;;;15.90;75.36
70589;BME280;58152;49.202;18.744;2022-09-14T09:51:32;96670.50;;;15.95;75.57
70589;BME280;58152;49.202;18.744;2022-09-14T09:57:00;96645.97;;;15.93;75.95
70589;BME280;58152;49.202;18.744;2022-09-14T09:59:32;96649.22;;;15.97;76.03
70589;BME280;58152;49.202;18.744;2022-09-14T10:02:23;96649.09;;;15.98;75.79
70589;BME280;58152;49.202;18.744;2022-09-14T10:08:03;96644.41;;;16.02;76.13
70589;BME280;58152;49.202;18.744;2022-09-14T10:13:04;96629.13;;;16.06;76.35
70589;BME280;58152;49.202;18.744;2022-09-14T10:15:34;96613.25;;;16.06;76.05
70589;BME280;58152;49.202;18.744;2022-09-14T10:21:21;96608.81;;;16.17;76.12
70589;BME280;58152;49.202;18.744;2022-09-14T10:24:03;96609.53;;;16.19;75.96
70589;BME280;58152;49.202;18.744;2022-09-14T10:26:34;96621.69;;;16.22;75.77
70589;BME280;58152;49.202;18.744;2022-09-14T10:29:28;96631.91;;;16.26;76.45
70589;BME280;58152;49.202;18.744;2022-09-14T10:32:04;96612.78;;;16.23;76.10
70589;BME280;58152;49.202;18.744;2022-09-14T10:34:34;96607.81;;;16.30;75.73
70589;BME280;58152;49.202;18.744;2022-09-14T10:37:25;96592.22;;;16.26;75.46
70589;BME280;58152;49.202;18.744;2022-09-14T10:40:09;96601.19;;;16.35;75.61
70589;BME280;58152;49.202;18.744;2022-09-14T10:42:47;96602.06;;;16.36;75.56
70589;BME280;58152;49.202;18.744;2022-09-14T10:45:27;96594.34;;;16.33;75.69
70589;BME280;58152;49.202;18.744;2022-09-14T10:48:19;96592.53;;;16.33;75.99
70589;BME280;58152;49.202;18.744;2022-09-14T10:51:14;96582.09;;;16.32;75.87
70589;BME280;58152;49.202;18.744;2022-09-14T10:56:25;96594.34;;;16.33;76.09
70589;BME280;58152;49.202;18.744;2022-09-14T11:07:52;96577.38;;;16.35;76.63
70589;BME280;58152;49.202;18.744;2022-09-14T11:51:53;96605.19;;;16.18;78.30
70589;BME280;58152;49.202;18.744;2022-09-14T11:55:13;96603.75;;;16.14;78.74
70589;BME280;58152;49.202;18.744;2022-09-14T12:05:33;96589.31;;;16.18;79.13
70589;BME280;58152;49.202;18.744;2022-09-14T12:11:43;96606.75;;;16.21;79.29
70589;BME280;58152;49.202;18.744;2022-09-14T12:17:24;96608.56;;;16.20;79.18
70589;BME280;58152;49.202;18.744;2022-09-14T12:20:22;96593.66;;;16.19;79.42
70589;BME280;58152;49.202;18.744;2022-09-14T12:22:43;96572.72;;;16.16;79.30
70589;BME280;58152;49.202;18.744;2022-09-14T12:34:31;96602.19;;;16.23;79.81
70589;BME280;58152;49.202;18.744;2022-09-14T12:37:27;96591.59;;;16.23;79.60
70589;BME280;58152;49.202;18.744;2022-09-14T12:40:22;96581.63;;;16.26;79.88
70589;BME280;58152;49.202;18.744;2022-09-14T12:43:13;96564.41;;;16.21;79.89
70589;BME280;58152;49.202;18.744;2022-09-14T12:51:51;96554.56;;;16.23;80.08
70589;BME280;58152;49.202;18.744;2022-09-14T12:57:26;96531.06;;;16.30;79.92
70589;BME280;58152;49.202;18.744;2022-09-14T13:00:11;96540.69;;;16.31;80.13
70589;BME280;58152;49.202;18.744;2022-09-14T13:05:18;96512.31;;;16.33;80.35
70589;BME280;58152;49.202;18.744;2022-09-14T13:07:44;96516.16;;;16.29;80.63
70589;BME280;58152;49.202;18.744;2022-09-14T13:10:21;96518.81;;;16.29;80.38
70589;BME280;58152;49.202;18.744;2022-09-14T13:12:49;96520.75;;;16.26;80.54
70589;BME280;58152;49.202;18.744;2022-09-14T13:15:21;96514.34;;;16.29;80.79
70589;BME280;58152;49.202;18.744;2022-09-14T13:18:02;96500.50;;;16.25;80.51
70589;BME280;58152;49.202;18.744;2022-09-14T13:20:31;96501.50;;;16.24;80.95
70589;BME280;58152;49.202;18.744;2022-09-14T13:22:57;96496.06;;;16.26;80.92
70589;BME280;58152;49.202;18.744;2022-09-14T13:25:36;96485.22;;;16.29;80.78
70589;BME280;58152;49.202;18.744;2022-09-14T13:28:10;96475.03;;;16.24;80.87
70589;BME280;58152;49.202;18.744;2022-09-14T13:30:38;96464.31;;;16.26;80.89
70589;BME280;58152;49.202;18.744;2022-09-14T13:33:06;96474.78;;;16.27;80.73
70589;BME280;58152;49.202;18.744;2022-09-14T13:35:49;96474.78;;;16.27;80.64
70589;BME280;58152;49.202;18.744;2022-09-14T13:38:16;96470.31;;;16.28;81.09
70589;BME280;58152;49.202;18.744;2022-09-14T13:40:42;96453.16;;;16.22;80.82
70589;BME280;58152;49.202;18.744;2022-09-14T13:43:09;96456.50;;;16.24;80.77
70589;BME280;58152;49.202;18.744;2022-09-14T13:45:35;96472.25;;;16.26;80.83
70589;BME280;58152;49.202;18.744;2022-09-14T13:48:01;96470.84;;;16.22;80.80
70589;BME280;58152;49.202;18.744;2022-09-14T13:50:28;96471.69;;;16.22;80.83
70589;BME280;58152;49.202;18.744;2022-09-14T13:52:54;96454.22;;;16.20;81.20
70589;BME280;58152;49.202;18.744;2022-09-14T13:55:24;96459.38;;;16.21;80.86
70589;BME280;58152;49.202;18.744;2022-09-14T14:00:46;96451.59;;;16.20;80.90
70589;BME280;58152;49.202;18.744;2022-09-14T14:05:57;96460.88;;;16.14;80.87
70589;BME280;58152;49.202;18.744;2022-09-14T14:10:56;96464.88;;;16.09;80.94
70589;BME280;58152;49.202;18.744;2022-09-14T14:13:27;96464.72;;;16.10;80.94
70589;BME280;58152;49.202;18.744;2022-09-14T14:15:53;96466.41;;;16.11;80.75
70589;BME280;58152;49.202;18.744;2022-09-14T14:21:16;96433.56;;;16.14;80.65
70589;BME280;58152;49.202;18.744;2022-09-14T14:23:51;96439.84;;;16.13;80.78
70589;BME280;58152;49.202;18.744;2022-09-14T14:26:25;96427.19;;;16.16;80.30
70589;BME280;58152;49.202;18.744;2022-09-14T14:31:46;96420.34;;;16.14;80.39
70589;BME280;58152;49.202;18.744;2022-09-14T14:34:22;96430.56;;;16.18;80.31
70589;BME280;58152;49.202;18.744;2022-09-14T14:37:07;96415.06;;;16.14;80.64
70589;BME280;58152;49.202;18.744;2022-09-14T14:39:36;96425.38;;;16.17;80.17
70589;BME280;58152;49.202;18.744;2022-09-14T14:42:02;96424.53;;;16.16;80.43
70589;BME280;58152;49.202;18.744;2022-09-14T14:44:28;96435.94;;;16.17;80.45
70589;BME280;58152;49.202;18.744;2022-09-14T14:46:57;96424.06;;;16.11;80.58
70589;BME280;58152;49.202;18.744;2022-09-14T14:49:29;96421.69;;;16.08;80.61
70589;BME280;58152;49.202;18.744;2022-09-14T14:51:57;96434.41;;;16.14;80.58
70589;BME280;58152;49.202;18.744;2022-09-14T14:54:23;96435.38;;;16.13;80.69
70589;BME280;58152;49.202;18.744;2022-09-14T14:56:50;96432.97;;;16.10;80.58
70589;BME280;58152;49.202;18.744;2022-09-14T15:01:44;96433.34;;;16.06;80.69
70589;BME280;58152;49.202;18.744;2022-09-14T15:04:10;96440.31;;;16.07;80.49
70589;BME280;58152;49.202;18.744;2022-09-14T15:06:41;96443.94;;;16.06;80.42
70589;BME280;58152;49.202;18.744;2022-09-14T15:09:15;96433.50;;;16.04;80.46
70589;BME280;58152;49.202;18.744;2022-09-14T15:11:41;96430.84;;;16.04;80.50
70589;BME280;58152;49.202;18.744;2022-09-14T15:14:11;96415.44;;;15.98;80.67
70589;BME280;58152;49.202;18.744;2022-09-14T15:16:37;96438.50;;;16.07;80.79
70589;BME280;58152;49.202;18.744;2022-09-14T15:19:05;96440.47;;;16.05;80.81
70589;BME280;58152;49.202;18.744;2022-09-14T15:24:27;96424.38;;;15.97;80.96
70589;BME280;58152;49.202;18.744;2022-09-14T15:26:53;96437.06;;;16.03;80.93
70589;BME280;58152;49.202;18.744;2022-09-14T15:29:19;96438.78;;;16.04;81.12
70589;BME280;58152;49.202;18.744;2022-09-14T15:31:44;96433.97;;;15.98;80.63
70589;BME280;58152;49.202;18.744;2022-09-14T15:34:10;96425.34;;;15.96;81.00
70589;BME280;58152;49.202;18.744;2022-09-14T15:36:38;96430.00;;;16.04;80.82
70589;BME280;58152;49.202;18.744;2022-09-14T15:39:05;96423.16;;;16.01;80.85
70589;BME280;58152;49.202;18.744;2022-09-14T15:41:31;96424.81;;;16.02;81.30
70589;BME280;58152;49.202;18.744;2022-09-14T15:43:56;96423.84;;;16.03;81.13